createdAt,value
2024-05-09T00:01:51.593Z,102779.41
2024-05-09T00:04:21.116Z,102769.63
2024-05-09T00:06:50.664Z,102772.53
2024-05-09T00:09:20.190Z,102777.28
2024-05-09T00:11:49.845Z,102776.66
2024-05-09T00:14:19.570Z,102775.63
2024-05-09T00:16:52.262Z,102775.81
2024-05-09T00:19:21.953Z,102779.56
2024-05-09T00:21:51.512Z,102769.97
2024-05-09T00:24:21.103Z,102776.41
2024-05-09T00:26:50.680Z,102772.25
2024-05-09T00:29:20.267Z,102772.44
2024-05-09T00:31:52.445Z,102768.06
2024-05-09T00:34:22.066Z,102769.28
2024-05-09T00:36:51.737Z,102769.28
2024-05-09T00:39:21.291Z,102773.88
2024-05-09T00:41:50.857Z,102769.72
2024-05-09T00:44:20.439Z,102764.50
2024-05-09T00:46:55.406Z,102770.09
2024-05-09T00:49:26.180Z,102773.00
2024-05-09T00:51:56.989Z,102764.91
2024-05-09T00:54:27.138Z,102765.09
2024-05-09T00:56:57.144Z,102761.56
2024-05-09T00:59:27.495Z,102759.88
2024-05-09T01:02:01.430Z,102753.66
2024-05-09T01:04:31.011Z,102759.03
2024-05-09T01:07:00.659Z,102748.81
2024-05-09T01:09:30.336Z,102746.97
2024-05-09T01:11:59.974Z,102747.16
2024-05-09T01:14:29.692Z,102748.00
2024-05-09T01:17:02.014Z,102748.63
2024-05-09T01:19:33.100Z,102742.78
2024-05-09T01:22:04.292Z,102749.03
2024-05-09T01:24:36.417Z,102749.03
2024-05-09T01:27:06.215Z,102740.28
2024-05-09T01:29:35.833Z,102736.75
2024-05-09T01:32:05.538Z,102744.84
2024-05-09T01:34:35.161Z,102737.97
2024-05-09T01:37:04.704Z,102731.72
2024-05-09T01:39:36.859Z,102730.06
2024-05-09T01:42:06.836Z,102732.13
2024-05-09T01:44:36.407Z,102731.47
2024-05-09T01:47:06.184Z,102729.81
2024-05-09T01:49:39.136Z,102738.09
2024-05-09T01:52:08.916Z,102732.91
2024-05-09T01:54:41.088Z,102736.63
2024-05-09T01:57:10.621Z,102734.97
2024-05-09T01:59:40.192Z,102723.13
2024-05-09T02:02:10.156Z,102728.91
2024-05-09T02:04:39.939Z,102732.66
2024-05-09T02:07:10.327Z,102734.50
2024-05-09T02:09:42.408Z,102735.34
2024-05-09T02:12:12.608Z,102730.97
2024-05-09T02:14:42.311Z,102738.25
2024-05-09T02:17:11.975Z,102739.28
2024-05-09T02:19:41.557Z,102725.78
2024-05-09T02:22:11.221Z,102733.03
2024-05-09T02:24:43.384Z,102726.59
2024-05-09T02:27:12.932Z,102734.72
2024-05-09T02:29:42.591Z,102725.78
2024-05-09T02:32:12.182Z,102726.81
2024-05-09T02:34:41.844Z,102727.84
2024-05-09T02:37:11.383Z,102728.66
2024-05-09T02:39:40.914Z,102730.53
2024-05-09T02:42:10.403Z,102729.69
2024-05-09T02:44:37.410Z,102738.00
2024-05-09T02:47:07.529Z,102734.47
2024-05-09T02:49:34.623Z,102732.59
2024-05-09T02:52:04.193Z,102725.53
2024-05-09T02:54:31.195Z,102729.91
2024-05-09T02:57:03.337Z,102732.78
2024-05-09T02:59:30.294Z,102724.88
2024-05-09T03:01:59.955Z,102731.97
2024-05-09T03:04:26.955Z,102724.03
2024-05-09T03:06:56.545Z,102722.38
2024-05-09T03:09:24.185Z,102719.69
2024-05-09T03:11:54.726Z,102718.19
2024-05-09T03:14:24.492Z,102726.50
2024-05-09T03:16:54.056Z,102725.66
2024-05-09T03:19:21.168Z,102727.53
2024-05-09T03:21:50.962Z,102726.69
2024-05-09T03:24:17.862Z,102723.34
2024-05-09T03:26:47.444Z,102729.78
2024-05-09T03:29:14.435Z,102724.38
2024-05-09T03:31:46.680Z,102722.69
2024-05-09T03:34:13.687Z,102724.56
2024-05-09T03:36:46.223Z,102731.84
2024-05-09T03:39:15.729Z,102730.16
2024-05-09T03:41:45.341Z,102723.94
2024-05-09T03:44:14.985Z,102717.03
2024-05-09T03:46:44.621Z,102715.38
2024-05-09T03:49:14.447Z,102717.03
2024-05-09T03:51:41.480Z,102719.09
2024-05-09T03:54:11.006Z,102720.78
2024-05-09T03:56:38.166Z,102725.34
2024-05-09T03:59:07.767Z,102724.50
2024-05-09T04:01:34.801Z,102722.00
2024-05-09T04:04:08.975Z,102723.88
2024-05-09T04:06:36.055Z,102723.22
2024-05-09T04:09:05.591Z,102719.00
2024-05-09T04:11:32.721Z,102715.31
2024-05-09T04:14:02.345Z,102720.03
2024-05-09T04:16:29.296Z,102711.94
2024-05-09T04:18:58.938Z,102714.84
2024-05-09T04:21:28.566Z,102717.53
2024-05-09T04:23:58.087Z,102717.72
2024-05-09T04:26:25.107Z,102716.06
2024-05-09T04:28:54.739Z,102714.38
2024-05-09T04:31:21.682Z,102718.13
2024-05-09T04:33:51.338Z,102719.13
2024-05-09T04:36:18.553Z,102719.13
2024-05-09T04:38:50.694Z,102722.03
2024-05-09T04:41:17.638Z,102724.94
2024-05-09T04:43:47.248Z,102720.56
2024-05-09T04:46:14.924Z,102716.00
2024-05-09T04:48:45.121Z,102723.44
2024-05-09T04:51:12.177Z,102722.59
2024-05-09T04:53:41.730Z,102721.78
2024-05-09T04:56:11.356Z,102717.22
2024-05-09T04:58:40.908Z,102715.53
2024-05-09T05:01:07.891Z,102721.78
2024-05-09T05:03:37.494Z,102723.63
2024-05-09T05:06:04.667Z,102730.06
2024-05-09T05:08:34.332Z,102729.22
2024-05-09T05:11:01.494Z,102722.81
2024-05-09T05:13:38.566Z,102731.91
2024-05-09T05:16:07.341Z,102726.53
2024-05-09T05:18:36.988Z,102720.09
2024-05-09T05:21:04.285Z,102729.22
2024-05-09T05:23:34.124Z,102727.38
2024-05-09T05:26:01.149Z,102726.34
2024-05-09T05:28:30.753Z,102726.34
2024-05-09T05:31:00.312Z,102730.72
2024-05-09T05:33:30.075Z,102734.25
2024-05-09T05:35:57.399Z,102733.22
2024-05-09T05:38:28.382Z,102726.78
2024-05-09T05:40:55.978Z,102721.13
2024-05-09T05:43:25.586Z,102729.94
2024-05-09T05:45:52.499Z,102729.75
2024-05-09T05:48:24.797Z,102737.84
2024-05-09T05:50:51.880Z,102738.50
2024-05-09T05:53:21.491Z,102737.47
2024-05-09T05:55:48.544Z,102741.84
2024-05-09T05:58:20.228Z,102738.50
2024-05-09T06:00:48.200Z,102744.91
2024-05-09T06:03:17.849Z,102744.72
2024-05-09T06:05:47.527Z,102750.97
2024-05-09T06:08:17.166Z,102751.78
2024-05-09T06:10:44.225Z,102748.72
2024-05-09T06:13:15.770Z,102751.06
2024-05-09T06:15:43.640Z,102749.00
2024-05-09T06:18:14.154Z,102750.94
2024-05-09T06:20:43.259Z,102748.03
2024-05-09T06:23:17.045Z,102747.66
2024-05-09T06:25:44.293Z,102751.81
2024-05-09T06:28:14.044Z,102755.16
2024-05-09T06:30:42.616Z,102757.47
2024-05-09T06:33:15.841Z,102746.03
2024-05-09T06:35:44.351Z,102754.19
2024-05-09T06:38:16.841Z,102753.16
2024-05-09T06:40:44.593Z,102751.13
2024-05-09T06:43:17.371Z,102753.44
2024-05-09T06:45:47.343Z,102754.47
2024-05-09T06:48:17.539Z,102749.69
2024-05-09T06:50:44.879Z,102744.94
2024-05-09T06:53:18.431Z,102750.97
2024-05-09T06:55:45.488Z,102748.47
2024-05-09T06:58:15.112Z,102754.13
2024-05-09T07:00:42.575Z,102746.84
2024-05-09T07:03:14.713Z,102748.13
2024-05-09T07:05:44.578Z,102755.84
2024-05-09T07:08:17.169Z,102749.84
2024-05-09T07:10:44.443Z,102745.94
2024-05-09T07:13:15.785Z,102751.13
2024-05-09T07:15:42.958Z,102752.81
2024-05-09T07:18:15.557Z,102758.00
2024-05-09T07:20:43.169Z,102752.63
2024-05-09T07:23:13.338Z,102751.78
2024-05-09T07:25:43.324Z,102753.66
2024-05-09T07:28:13.847Z,102751.78
2024-05-09T07:30:40.846Z,102754.09
2024-05-09T07:33:12.236Z,102755.75
2024-05-09T07:35:39.504Z,102759.28
2024-05-09T07:38:09.373Z,102751.19
2024-05-09T07:40:40.422Z,102760.13
2024-05-09T07:43:11.605Z,102750.78
2024-05-09T07:45:50.538Z,102748.09
2024-05-09T07:52:37.325Z,102765.16
2024-05-09T07:53:45.827Z,102760.41
2024-05-09T07:56:21.246Z,102751.06
2024-05-09T07:58:52.919Z,102747.13
2024-05-09T08:01:22.766Z,102739.66
2024-05-09T08:03:52.579Z,102741.75
2024-05-09T08:06:19.612Z,102744.06
2024-05-09T08:08:49.498Z,102740.38
2024-05-09T08:11:16.534Z,102736.25
2024-05-09T08:13:46.112Z,102724.44
2024-05-09T08:16:16.285Z,102730.34
2024-05-09T08:18:45.874Z,102721.00
2024-05-09T08:21:12.850Z,102726.41
2024-05-09T08:23:42.346Z,102718.91
2024-05-09T08:26:09.266Z,102729.72
2024-05-09T08:28:38.887Z,102716.19
2024-05-09T08:31:07.196Z,102728.69
2024-05-09T08:33:39.775Z,102718.09
2024-05-09T08:36:07.146Z,102723.16
2024-05-09T08:38:36.644Z,102714.00
2024-05-09T08:41:04.491Z,102712.53
2024-05-09T08:43:34.101Z,102714.03
2024-05-09T08:46:04.337Z,102722.38
2024-05-09T08:48:37.248Z,102716.34
2024-05-09T08:51:07.191Z,102722.19
2024-05-09T08:53:36.694Z,102721.38
2024-05-09T08:56:05.868Z,102716.59
2024-05-09T08:58:37.754Z,102712.63
2024-05-09T09:01:04.965Z,102719.53
2024-05-09T09:03:36.581Z,102720.38
2024-05-09T09:06:08.850Z,102712.66
2024-05-09T09:08:41.216Z,102710.78
2024-05-09T09:11:08.115Z,102714.13
2024-05-09T09:13:37.651Z,102709.75
2024-05-09T09:16:05.230Z,102707.81
2024-05-09T09:18:34.980Z,102706.56
2024-05-09T09:21:02.908Z,102703.44
2024-05-09T09:23:36.196Z,102705.09
2024-05-09T09:26:03.142Z,102706.78
2024-05-09T09:28:32.725Z,102707.81
2024-05-09T09:31:03.309Z,102701.78
2024-05-09T09:33:36.169Z,102705.34
2024-05-09T09:36:04.981Z,102698.06
2024-05-09T09:38:39.947Z,102702.22
2024-05-09T09:41:08.917Z,102697.22
2024-05-09T09:43:39.624Z,102687.66
2024-05-09T09:46:10.729Z,102691.41
2024-05-09T09:48:43.112Z,102685.34
2024-05-09T09:51:10.740Z,102688.25
2024-05-09T09:53:44.794Z,102686.78
2024-05-09T09:56:12.169Z,102685.34
2024-05-09T09:58:42.836Z,102685.94
2024-05-09T10:01:10.281Z,102685.09
2024-05-09T10:03:41.256Z,102681.34
2024-05-09T10:06:11.225Z,102679.25
2024-05-09T10:08:44.374Z,102687.81
2024-05-09T10:11:11.598Z,102679.03
2024-05-09T10:13:44.372Z,102674.03
2024-05-09T10:16:14.405Z,102671.50
2024-05-09T10:18:44.211Z,102663.75
2024-05-09T10:21:17.984Z,102662.03
2024-05-09T10:23:59.981Z,102664.72
2024-05-09T10:26:34.005Z,102667.63
2024-05-09T10:29:04.739Z,102664.91
2024-05-09T10:31:32.309Z,102663.25
2024-05-09T10:34:03.613Z,102658.03
2024-05-09T10:36:30.909Z,102658.25
2024-05-09T10:39:03.093Z,102660.75
2024-05-09T10:41:30.023Z,102650.50
2024-05-09T10:43:59.712Z,102650.09
2024-05-09T10:46:26.802Z,102640.69
2024-05-09T10:48:56.697Z,102642.53
2024-05-09T10:51:24.852Z,102637.28
2024-05-09T10:53:56.742Z,102634.97
2024-05-09T10:56:26.424Z,102636.41
2024-05-09T10:58:56.170Z,102638.06
2024-05-09T11:01:23.451Z,102629.31
2024-05-09T11:03:53.465Z,102631.38
2024-05-09T11:06:20.711Z,102627.00
2024-05-09T11:08:50.827Z,102632.41
2024-05-09T11:11:18.011Z,102631.38
2024-05-09T11:13:50.216Z,102623.00
2024-05-09T11:16:19.712Z,102624.91
2024-05-09T11:18:57.981Z,102624.06
2024-05-09T11:21:25.512Z,102624.06
2024-05-09T11:23:55.277Z,102619.25
2024-05-09T11:26:22.699Z,102621.13
2024-05-09T11:28:54.906Z,102617.13
2024-05-09T11:31:22.002Z,102611.88
2024-05-09T11:33:51.860Z,102607.06
2024-05-09T11:36:18.904Z,102606.63
2024-05-09T11:38:48.467Z,102604.06
2024-05-09T11:41:17.436Z,102600.09
2024-05-09T11:43:47.050Z,102598.81
2024-05-09T11:46:16.808Z,102602.31
2024-05-09T11:48:46.671Z,102594.31
2024-05-09T11:51:13.728Z,102590.09
2024-05-09T11:53:43.230Z,102578.84
2024-05-09T11:56:12.001Z,102584.41
2024-05-09T11:58:41.626Z,102580.41
2024-05-09T12:01:08.667Z,102579.13
2024-05-09T12:03:40.980Z,102580.78
2024-05-09T12:06:08.119Z,102580.34
2024-05-09T12:08:37.710Z,102575.28
2024-05-09T12:11:05.255Z,102571.91
2024-05-09T12:13:34.895Z,102564.47
2024-05-09T12:16:01.975Z,102561.09
2024-05-09T12:18:33.909Z,102554.75
2024-05-09T12:21:03.942Z,102561.16
2024-05-09T12:23:33.464Z,102553.16
2024-05-09T12:26:00.576Z,102554.38
2024-05-09T12:28:30.198Z,102550.22
2024-05-09T12:30:57.216Z,102533.66
2024-05-09T12:33:26.877Z,102542.22
2024-05-09T12:35:53.930Z,102541.38
2024-05-09T12:38:26.077Z,102537.63
2024-05-09T12:40:53.203Z,102527.59
2024-05-09T12:43:23.015Z,102531.13
2024-05-09T12:45:50.172Z,102529.84
2024-05-09T12:48:19.845Z,102531.28
2024-05-09T12:50:46.872Z,102519.72
2024-05-09T12:53:16.606Z,102519.47
2024-05-09T12:55:53.583Z,102521.75
2024-05-09T12:58:26.821Z,102526.50
2024-05-09T13:00:54.010Z,102521.66
2024-05-09T13:03:23.797Z,102510.91
2024-05-09T13:05:51.668Z,102524.19
2024-05-09T13:08:21.669Z,102518.06
2024-05-09T13:10:51.366Z,102524.47
2024-05-09T13:13:21.116Z,102504.59
2024-05-09T13:15:48.159Z,102508.97
2024-05-09T13:18:17.758Z,102507.91
2024-05-09T13:20:44.942Z,102507.69
2024-05-09T13:23:14.502Z,102511.47
2024-05-09T13:25:41.422Z,102505.69
2024-05-09T13:28:13.759Z,102503.81
2024-05-09T13:30:42.347Z,102501.44
2024-05-09T13:33:13.370Z,102500.97
2024-05-09T13:35:45.722Z,102504.91
2024-05-09T13:38:19.846Z,102501.13
2024-05-09T13:40:47.620Z,102493.91
2024-05-09T13:43:22.020Z,102494.97
2024-05-09T13:45:49.743Z,102494.97
2024-05-09T13:48:19.891Z,102494.50
2024-05-09T13:50:47.300Z,102498.41
2024-05-09T13:53:16.941Z,102499.25
2024-05-09T13:55:43.958Z,102492.50
2024-05-09T13:58:13.572Z,102489.78
2024-05-09T14:00:48.007Z,102483.16
2024-05-09T14:03:20.613Z,102489.28
2024-05-09T14:05:49.951Z,102491.78
2024-05-09T14:08:22.348Z,102477.56
2024-05-09T14:10:50.396Z,102488.47
2024-05-09T14:13:20.345Z,102476.75
2024-05-09T14:15:50.277Z,102482.22
2024-05-09T14:18:20.553Z,102488.72
2024-05-09T14:20:47.545Z,102481.59
2024-05-09T14:23:17.525Z,102482.44
2024-05-09T14:25:46.055Z,102473.69
2024-05-09T14:28:16.859Z,102473.09
2024-05-09T14:30:43.839Z,102473.56
2024-05-09T14:33:23.676Z,102475.69
2024-05-09T14:35:50.814Z,102465.03
2024-05-09T14:38:20.303Z,102464.44
2024-05-09T14:40:47.350Z,102469.88
2024-05-09T14:43:19.457Z,102462.78
2024-05-09T14:45:46.682Z,102453.78
2024-05-09T14:48:19.988Z,102458.97
2024-05-09T14:50:47.229Z,102455.44
2024-05-09T14:53:17.530Z,102465.38
2024-05-09T14:55:44.714Z,102455.31
2024-05-09T14:58:14.818Z,102458.28
2024-05-09T15:00:46.751Z,102455.78
2024-05-09T15:03:22.891Z,102447.88
2024-05-09T15:05:51.081Z,102445.97
2024-05-09T15:08:21.911Z,102443.47
2024-05-09T15:10:50.223Z,102438.28
2024-05-09T15:13:20.825Z,102439.56
2024-05-09T15:15:48.202Z,102436.84
2024-05-09T15:18:18.565Z,102436.84
2024-05-09T15:20:48.878Z,102433.91
2024-05-09T15:23:18.937Z,102430.81
2024-05-09T15:25:45.917Z,102431.41
2024-05-09T15:28:15.784Z,102425.13
2024-05-09T15:30:46.285Z,102426.78
2024-05-09T15:33:16.825Z,102423.59
2024-05-09T15:35:46.233Z,102416.25
2024-05-09T15:38:18.934Z,102421.22
2024-05-09T15:40:46.250Z,102419.94
2024-05-09T15:43:16.063Z,102418.63
2024-05-09T15:45:43.091Z,102418.41
2024-05-09T15:48:12.988Z,102415.44
2024-05-09T15:50:41.997Z,102415.69
2024-05-09T15:53:13.218Z,102422.41
2024-05-09T15:55:46.070Z,102412.25
2024-05-09T15:58:14.234Z,102419.81
2024-05-09T16:00:46.933Z,102415.66
2024-05-09T16:03:15.870Z,102413.19
2024-05-09T16:05:47.363Z,102411.53
2024-05-09T16:08:15.720Z,102406.31
2024-05-09T16:10:49.695Z,102401.09
2024-05-09T16:13:17.736Z,102396.25
2024-05-09T16:15:48.205Z,102403.94
2024-05-09T16:18:15.722Z,102396.84
2024-05-09T16:20:48.272Z,102398.75
2024-05-09T16:23:17.059Z,102392.47
2024-05-09T16:25:51.444Z,102393.28
2024-05-09T16:28:18.908Z,102399.81
2024-05-09T16:30:48.673Z,102399.44
2024-05-09T16:33:19.173Z,102399.81
2024-05-09T16:35:49.346Z,102395.66
2024-05-09T16:38:16.414Z,102398.16
2024-05-09T16:40:46.136Z,102391.63
2024-05-09T16:43:15.953Z,102395.78
2024-05-09T16:45:46.465Z,102393.66
2024-05-09T16:48:14.198Z,102389.88
2024-05-09T16:50:44.124Z,102390.09
2024-05-09T16:53:11.229Z,102399.09
2024-05-09T16:55:40.835Z,102390.34
2024-05-09T16:58:08.353Z,102397.09
2024-05-09T17:00:43.268Z,102392.69
2024-05-09T17:03:13.867Z,102393.53
2024-05-09T17:05:46.035Z,102396.84
2024-05-09T17:08:15.740Z,102391.03
2024-05-09T17:10:45.592Z,102389.16
2024-05-09T17:13:15.396Z,102390.56
2024-05-09T17:15:48.070Z,102384.53
2024-05-09T17:18:15.702Z,102387.84
2024-05-09T17:20:45.465Z,102385.13
2024-05-09T17:23:13.988Z,102384.91
2024-05-09T17:25:44.249Z,102379.22
2024-05-09T17:28:11.893Z,102378.84
2024-05-09T17:30:42.808Z,102380.03
2024-05-09T17:33:13.405Z,102381.69
2024-05-09T17:35:45.807Z,102371.63
2024-05-09T17:38:12.924Z,102377.91
2024-05-09T17:40:42.504Z,102374.38
2024-05-09T17:43:10.721Z,102368.09
2024-05-09T17:45:41.627Z,102368.91
2024-05-09T17:48:10.380Z,102379.81
2024-05-09T17:50:43.337Z,102376.50
2024-05-09T17:53:11.160Z,102367.50
2024-05-09T17:55:41.665Z,102374.59
2024-05-09T17:58:09.634Z,102385.72
2024-05-09T18:00:41.933Z,102380.03
2024-05-09T18:03:11.734Z,102375.66
2024-05-09T18:05:45.570Z,102377.31
2024-05-09T18:08:13.355Z,102378.38
2024-05-09T18:10:44.411Z,102369.88
2024-05-09T18:13:16.077Z,102378.38
2024-05-09T18:15:45.709Z,102371.28
2024-05-09T18:18:13.262Z,102376.97
2024-05-09T18:20:46.434Z,102367.97
2024-05-09T18:23:16.166Z,102369.03
2024-05-09T18:25:48.118Z,102374.72
2024-05-09T18:28:15.924Z,102370.09
2024-05-09T18:30:45.870Z,102364.06
2024-05-09T18:33:13.435Z,102368.09
2024-05-09T18:35:47.268Z,102364.53
2024-05-09T18:38:14.353Z,102365.84
2024-05-09T18:40:46.229Z,102366.91
2024-05-09T18:43:15.512Z,102367.13
2024-05-09T18:45:45.162Z,102363.59
2024-05-09T18:48:13.442Z,102367.38
2024-05-09T18:50:43.155Z,102377.44
2024-05-09T18:53:16.021Z,102371.16
2024-05-09T18:55:45.840Z,102380.38
2024-05-09T18:58:12.867Z,102376.84
2024-05-09T19:00:45.369Z,102372.69
2024-05-09T19:03:14.935Z,102383.56
2024-05-09T19:05:46.332Z,102380.03
2024-05-09T19:08:16.351Z,102387.34
2024-05-09T19:10:46.489Z,102381.09
2024-05-09T19:13:14.571Z,102379.66
2024-05-09T19:15:45.058Z,102382.38
2024-05-09T19:18:13.214Z,102383.44
2024-05-09T19:20:43.810Z,102391.03
2024-05-09T19:23:11.657Z,102391.03
2024-05-09T19:25:44.090Z,102390.19
2024-05-09T19:28:11.135Z,102382.50
2024-05-09T19:30:42.477Z,102389.59
2024-05-09T19:33:11.880Z,102387.09
2024-05-09T19:35:42.800Z,102389.00
2024-05-09T19:38:09.906Z,102386.50
2024-05-09T19:40:39.511Z,102393.84
2024-05-09T19:43:09.404Z,102390.53
2024-05-09T19:45:39.399Z,102396.19
2024-05-09T19:48:07.438Z,102394.53
2024-05-09T19:50:42.519Z,102394.78
2024-05-09T19:53:12.146Z,102393.13
2024-05-09T19:55:41.998Z,102394.19
2024-05-09T19:58:12.708Z,102394.41
2024-05-09T20:00:44.077Z,102394.66
2024-05-09T20:03:12.975Z,102392.38
2024-05-09T20:05:43.172Z,102394.28
2024-05-09T20:08:10.356Z,102396.41
2024-05-09T20:10:40.230Z,102396.63
2024-05-09T20:13:08.205Z,102393.09
2024-05-09T20:15:40.918Z,102392.72
2024-05-09T20:18:08.221Z,102395.44
2024-05-09T20:20:41.663Z,102391.06
2024-05-09T20:23:11.183Z,102396.72
2024-05-09T20:25:40.984Z,102395.91
2024-05-09T20:28:08.087Z,102396.97
2024-05-09T20:30:40.621Z,102397.19
2024-05-09T20:33:08.998Z,102398.25
2024-05-09T20:35:39.446Z,102392.81
2024-05-09T20:38:06.547Z,102390.34
2024-05-09T20:40:38.922Z,102396.00
2024-05-09T20:43:08.485Z,102401.44
2024-05-09T20:45:41.287Z,102399.97
2024-05-09T20:48:09.841Z,102403.75
2024-05-09T20:50:42.030Z,102404.59
2024-05-09T20:53:11.466Z,102395.84
2024-05-09T20:55:41.570Z,102402.34
2024-05-09T20:58:09.424Z,102404.22
2024-05-09T21:00:44.689Z,102405.50
2024-05-09T21:03:14.248Z,102407.63
2024-05-09T21:05:45.269Z,102404.91
2024-05-09T21:08:12.438Z,102410.56
2024-05-09T21:10:42.062Z,102416.25
2024-05-09T21:13:09.125Z,102403.94
2024-05-09T21:15:41.381Z,102418.59
2024-05-09T21:18:08.840Z,102417.16
2024-05-09T21:20:38.552Z,102411.13
2024-05-09T21:23:05.733Z,102413.25
2024-05-09T21:25:35.264Z,102409.69
2024-05-09T21:28:02.375Z,102407.22
2024-05-09T21:30:40.708Z,102404.13
2024-05-09T21:33:14.079Z,102413.94
2024-05-09T21:35:45.238Z,102411.44
2024-05-09T21:38:14.032Z,102408.94
2024-05-09T21:40:44.545Z,102410.72
2024-05-09T21:43:12.029Z,102415.72
2024-05-09T21:45:41.654Z,102412.38
2024-05-09T21:48:12.582Z,102415.34
2024-05-09T21:50:42.654Z,102415.56
2024-05-09T21:53:10.261Z,102416.38
2024-05-09T21:55:39.921Z,102404.09
2024-05-09T21:58:06.963Z,102416.03
2024-05-09T22:00:39.415Z,102413.53
2024-05-09T22:03:08.313Z,102410.22
2024-05-09T22:05:43.851Z,102422.13
2024-05-09T22:08:11.149Z,102417.75
2024-05-09T22:10:41.046Z,102414.44
2024-05-09T22:13:08.218Z,102415.28
2024-05-09T22:15:40.349Z,102414.66
2024-05-09T22:18:09.485Z,102411.34
2024-05-09T22:20:45.761Z,102412.41
2024-05-09T22:23:14.912Z,102399.88
2024-05-09T22:25:44.897Z,102412.63
2024-05-09T22:28:14.771Z,102409.09
2024-05-09T22:30:46.239Z,102412.03
2024-05-09T22:33:15.038Z,102407.66
2024-05-09T22:35:47.586Z,102409.53
2024-05-09T22:38:14.604Z,102405.16
2024-05-09T22:40:48.385Z,102401.63
2024-05-09T22:43:18.468Z,102405.38
2024-05-09T22:45:49.036Z,102398.06
2024-05-09T22:48:16.387Z,102412.72
2024-05-09T22:50:48.730Z,102405.63
2024-05-09T22:53:15.877Z,102412.09
2024-05-09T22:55:45.460Z,102410.44
2024-05-09T22:58:12.574Z,102406.06
2024-05-09T23:00:42.285Z,102406.91
2024-05-09T23:03:09.276Z,102407.94
2024-05-09T23:05:38.904Z,102400.03
2024-05-09T23:08:08.704Z,102404.41
2024-05-09T23:10:38.643Z,102408.19
2024-05-09T23:13:06.187Z,102397.53
2024-05-09T23:15:36.071Z,102394.22
2024-05-09T23:18:03.084Z,102400.72
2024-05-09T23:20:37.764Z,102394.44
2024-05-09T23:23:10.875Z,102396.56
2024-05-09T23:25:41.988Z,102405.75
2024-05-09T23:28:09.380Z,102401.84
2024-05-09T23:30:41.252Z,102396.41
2024-05-09T23:33:10.451Z,102402.06
2024-05-09T23:35:40.425Z,102398.75
2024-05-09T23:38:10.065Z,102397.91
2024-05-09T23:40:41.404Z,102394.59
2024-05-09T23:43:10.040Z,102389.38
2024-05-09T23:45:40.017Z,102390.44
2024-05-09T23:48:08.061Z,102390.44
2024-05-09T23:50:39.638Z,102382.75
2024-05-09T23:53:10.959Z,102386.28
2024-05-09T23:55:41.132Z,102390.06
2024-05-09T23:58:08.201Z,102386.53
